createdAt,value
2023-05-22T00:02:11.237Z,27.27
2023-05-22T00:04:38.303Z,24.85
2023-05-22T00:07:06.691Z,26.55
2023-05-22T00:09:33.639Z,31.65
2023-05-22T00:12:00.652Z,36.20
2023-05-22T00:14:27.738Z,34.28
2023-05-22T00:16:57.214Z,33.58
2023-05-22T00:19:24.350Z,32.88
2023-05-22T00:21:51.464Z,31.33
2023-05-22T00:24:18.524Z,35.53
2023-05-22T00:26:45.960Z,31.08
2023-05-22T00:29:13.016Z,35.97
2023-05-22T00:31:40.103Z,37.38
2023-05-22T00:34:07.349Z,37.03
2023-05-22T00:36:34.431Z,41.85
2023-05-22T00:39:01.380Z,39.58
2023-05-22T00:41:28.403Z,38.15
2023-05-22T00:43:55.489Z,41.08
2023-05-22T00:46:22.926Z,39.13
2023-05-22T00:48:50.118Z,49.60
2023-05-22T00:51:17.128Z,41.65
2023-05-22T00:53:45.131Z,40.50
2023-05-22T00:56:13.198Z,38.72
2023-05-22T00:58:40.137Z,36.55
2023-05-22T01:01:11.500Z,45.10
2023-05-22T01:03:44.933Z,38.63
2023-05-22T01:06:18.394Z,46.47
2023-05-22T01:08:45.491Z,49.65
2023-05-22T01:11:44.540Z,42.63
2023-05-22T01:14:17.379Z,38.88
2023-05-22T01:17:34.944Z,46.03
2023-05-22T01:20:23.329Z,41.88
2023-05-22T01:23:11.002Z,44.53
2023-05-22T01:26:08.328Z,48.85
2023-05-22T01:29:01.056Z,46.10
2023-05-22T01:31:31.492Z,41.03
2023-05-22T01:34:02.646Z,50.25
2023-05-22T01:36:35.109Z,47.42
2023-05-22T01:39:06.118Z,44.97
2023-05-22T01:41:34.417Z,46.80
2023-05-22T01:44:02.323Z,48.45
2023-05-22T01:46:30.368Z,45.05
2023-05-22T01:48:57.923Z,46.97
2023-05-22T01:51:33.891Z,46.95
2023-05-22T01:54:18.288Z,48.67
2023-05-22T01:56:56.758Z,48.25
2023-05-22T01:59:34.535Z,53.35
2023-05-22T02:02:09.187Z,53.15
2023-05-22T02:04:39.728Z,51.22
2023-05-22T02:07:07.574Z,53.03
2023-05-22T02:09:37.157Z,58.05
2023-05-22T02:12:04.630Z,59.20
2023-05-22T02:14:32.365Z,57.45
2023-05-22T02:17:02.977Z,59.08
2023-05-22T02:19:30.116Z,67.55
2023-05-22T02:21:57.277Z,53.47
2023-05-22T02:24:24.317Z,55.95
2023-05-22T02:26:51.556Z,58.53
2023-05-22T02:29:18.644Z,55.22
2023-05-22T02:31:45.903Z,52.83
2023-05-22T02:34:13.179Z,49.72
2023-05-22T02:36:41.085Z,48.90
2023-05-22T02:39:08.857Z,47.67
2023-05-22T02:41:35.736Z,43.30
2023-05-22T02:44:03.030Z,48.78
2023-05-22T02:46:30.220Z,51.63
2023-05-22T02:48:57.324Z,55.88
2023-05-22T02:51:24.379Z,49.78
2023-05-22T02:53:51.793Z,50.78
2023-05-22T02:56:19.017Z,45.15
2023-05-22T02:58:46.023Z,50.97
2023-05-22T03:01:13.106Z,47.90
2023-05-22T03:03:40.660Z,48.03
2023-05-22T03:06:08.929Z,45.75
2023-05-22T03:08:41.659Z,49.10
2023-05-22T03:11:08.842Z,48.95
2023-05-22T03:13:36.735Z,49.60
2023-05-22T03:16:03.875Z,53.65
2023-05-22T03:18:30.957Z,46.25
2023-05-22T03:20:57.799Z,44.05
2023-05-22T03:23:25.379Z,48.75
2023-05-22T03:25:52.475Z,50.13
2023-05-22T03:28:19.468Z,51.75
2023-05-22T03:30:46.785Z,44.33
2023-05-22T03:33:14.009Z,53.38
2023-05-22T03:35:43.390Z,46.53
2023-05-22T03:38:10.658Z,52.20
2023-05-22T03:40:38.003Z,47.38
2023-05-22T03:43:05.251Z,39.65
2023-05-22T03:45:32.374Z,44.97
2023-05-22T03:47:59.524Z,41.65
2023-05-22T03:50:26.431Z,43.75
2023-05-22T03:52:53.305Z,48.47
2023-05-22T03:55:20.187Z,48.90
2023-05-22T03:57:47.341Z,44.63
2023-05-22T04:00:17.118Z,40.63
2023-05-22T04:02:45.393Z,46.20
2023-05-22T04:05:12.743Z,41.97
2023-05-22T04:07:39.739Z,52.85
2023-05-22T04:10:07.190Z,42.10
2023-05-22T04:12:34.250Z,42.47
2023-05-22T04:15:01.564Z,44.75
2023-05-22T04:17:34.839Z,45.88
2023-05-22T04:20:01.859Z,49.25
2023-05-22T04:22:31.747Z,42.58
2023-05-22T04:24:58.790Z,43.08
2023-05-22T04:27:26.552Z,48.80
2023-05-22T04:29:53.699Z,48.25
2023-05-22T04:32:21.926Z,48.17
2023-05-22T04:34:52.536Z,47.63
2023-05-22T04:37:20.513Z,46.78
2023-05-22T04:39:47.660Z,52.35
2023-05-22T04:42:16.121Z,48.60
2023-05-22T04:44:44.398Z,53.97
2023-05-22T04:47:12.175Z,50.28
2023-05-22T04:49:39.228Z,53.70
2023-05-22T04:52:07.306Z,55.83
2023-05-22T04:54:34.612Z,58.53
2023-05-22T04:57:04.590Z,48.35
2023-05-22T04:59:40.222Z,55.55
2023-05-22T05:02:07.347Z,50.05
2023-05-22T05:04:34.291Z,48.00
2023-05-22T05:07:02.614Z,56.45
2023-05-22T05:09:29.913Z,53.08
2023-05-22T05:11:56.929Z,48.97
2023-05-22T05:14:24.097Z,48.17
2023-05-22T05:16:53.999Z,40.88
2023-05-22T05:19:21.702Z,45.85
2023-05-22T05:21:52.581Z,52.05
2023-05-22T05:24:19.677Z,46.45
2023-05-22T05:26:46.620Z,52.17
2023-05-22T05:29:13.925Z,53.92
2023-05-22T05:31:41.200Z,52.58
2023-05-22T05:34:08.269Z,52.55
2023-05-22T05:36:35.726Z,52.65
2023-05-22T05:39:02.652Z,53.58
2023-05-22T05:41:29.744Z,52.65
2023-05-22T05:44:00.320Z,48.72
2023-05-22T05:46:27.495Z,62.67
2023-05-22T05:48:54.718Z,57.22
2023-05-22T05:51:22.318Z,66.05
2023-05-22T05:53:49.820Z,51.67
2023-05-22T05:56:16.911Z,53.20
2023-05-22T05:58:43.959Z,48.45
2023-05-22T06:01:11.905Z,52.38
2023-05-22T06:03:41.376Z,54.45
2023-05-22T06:06:08.543Z,55.70
2023-05-22T06:08:36.079Z,52.58
2023-05-22T06:11:03.454Z,46.33
2023-05-22T06:13:30.444Z,55.70
2023-05-22T06:15:59.804Z,43.22
2023-05-22T06:18:28.788Z,49.97
2023-05-22T06:20:59.266Z,53.75
2023-05-22T06:23:26.505Z,59.75
2023-05-22T06:25:54.153Z,62.95
2023-05-22T06:28:21.428Z,74.43
2023-05-22T06:30:48.601Z,70.90
2023-05-22T06:33:16.031Z,68.53
2023-05-22T06:35:43.273Z,62.53
2023-05-22T06:38:10.272Z,63.25
2023-05-22T06:40:37.561Z,57.10
2023-05-22T06:43:04.776Z,55.88
2023-05-22T06:45:31.815Z,63.75
2023-05-22T06:47:58.994Z,68.30
2023-05-22T06:50:26.155Z,69.38
2023-05-22T06:52:53.250Z,67.47
2023-05-22T06:55:20.388Z,75.53
2023-05-22T06:57:48.407Z,76.88
2023-05-22T07:00:16.612Z,78.18
2023-05-22T07:02:44.021Z,71.55
2023-05-22T07:05:11.813Z,77.68
2023-05-22T07:07:38.729Z,73.97
2023-05-22T07:10:06.481Z,63.55
2023-05-22T07:12:33.499Z,61.28
2023-05-22T07:15:00.638Z,69.82
2023-05-22T07:17:27.700Z,68.13
2023-05-22T07:19:54.693Z,77.40
2023-05-22T07:22:21.601Z,76.07
2023-05-22T07:24:48.468Z,87.90
2023-05-22T07:27:15.671Z,87.28
2023-05-22T07:29:42.687Z,77.90
2023-05-22T07:32:09.688Z,75.63
2023-05-22T07:34:37.521Z,74.90
2023-05-22T07:37:09.283Z,66.10
2023-05-22T07:39:36.638Z,67.75
2023-05-22T07:42:05.708Z,71.10
2023-05-22T07:44:33.724Z,77.80
2023-05-22T07:47:00.920Z,79.43
2023-05-22T07:49:28.826Z,66.63
2023-05-22T07:51:55.977Z,72.13
2023-05-22T07:54:22.889Z,63.05
2023-05-22T07:56:50.903Z,70.80
2023-05-22T07:59:19.672Z,78.22
2023-05-22T08:01:46.961Z,66.93
2023-05-22T08:04:14.384Z,68.30
2023-05-22T08:06:43.903Z,67.78
2023-05-22T08:09:11.083Z,69.32
2023-05-22T08:11:40.785Z,65.05
2023-05-22T08:14:08.387Z,67.35
2023-05-22T08:16:35.835Z,69.57
2023-05-22T08:19:03.562Z,61.05
2023-05-22T08:21:33.350Z,67.10
2023-05-22T08:24:01.663Z,62.58
2023-05-22T08:26:30.128Z,62.38
2023-05-22T08:28:58.950Z,65.72
2023-05-22T08:31:26.131Z,62.03
2023-05-22T08:33:53.125Z,63.28
2023-05-22T08:36:20.366Z,58.95
2023-05-22T08:38:47.203Z,64.90
2023-05-22T08:41:15.773Z,57.72
2023-05-22T08:43:42.825Z,57.67
2023-05-22T08:46:10.717Z,57.33
2023-05-22T08:48:39.243Z,49.17
2023-05-22T08:51:07.706Z,49.92
2023-05-22T08:53:38.618Z,48.13
2023-05-22T08:56:07.318Z,51.03
2023-05-22T08:58:36.945Z,46.95
2023-05-22T09:01:06.368Z,45.80
2023-05-22T09:03:34.401Z,34.17
2023-05-22T09:06:02.557Z,38.78
2023-05-22T09:08:29.458Z,32.90
2023-05-22T09:10:57.539Z,36.25
2023-05-22T09:13:27.333Z,41.63
2023-05-22T09:15:59.592Z,36.85
2023-05-22T09:18:30.275Z,40.55
2023-05-22T09:20:58.481Z,45.58
2023-05-22T09:23:28.771Z,37.95
2023-05-22T09:26:00.175Z,39.60
2023-05-22T09:28:30.073Z,37.67
2023-05-22T09:30:59.448Z,44.65
2023-05-22T09:33:27.806Z,42.05
2023-05-22T09:35:56.654Z,40.28
2023-05-22T09:38:26.816Z,35.00
2023-05-22T09:40:54.857Z,45.35
2023-05-22T09:43:25.423Z,34.85
2023-05-22T09:46:01.904Z,31.40
2023-05-22T09:48:29.189Z,36.45
2023-05-22T09:50:59.997Z,35.20
2023-05-22T09:53:31.165Z,42.30
2023-05-22T09:56:00.460Z,36.00
2023-05-22T09:58:31.468Z,31.02
2023-05-22T10:00:59.385Z,40.40
2023-05-22T10:03:27.504Z,38.58
2023-05-22T10:05:58.619Z,32.35
2023-05-22T10:08:28.689Z,31.65
2023-05-22T10:10:56.192Z,41.30
2023-05-22T10:13:25.736Z,26.92
2023-05-22T10:15:53.501Z,35.15
2023-05-22T10:18:20.798Z,34.38
2023-05-22T10:20:49.171Z,35.88
2023-05-22T10:23:17.222Z,35.88
2023-05-22T10:25:45.685Z,32.78
2023-05-22T10:28:17.920Z,38.55
2023-05-22T10:30:56.267Z,36.65
2023-05-22T10:33:29.601Z,35.22
2023-05-22T10:36:04.117Z,45.92
2023-05-22T10:38:56.297Z,33.85
2023-05-22T10:41:24.551Z,34.22
2023-05-22T10:43:52.169Z,40.88
2023-05-22T10:46:19.524Z,41.78
2023-05-22T10:48:48.668Z,41.45
2023-05-22T10:51:21.207Z,41.72
2023-05-22T10:53:55.620Z,45.00
2023-05-22T10:56:25.343Z,50.72
2023-05-22T10:59:08.164Z,49.10
2023-05-22T11:01:38.085Z,38.22
2023-05-22T11:04:07.102Z,38.95
2023-05-22T11:06:41.628Z,41.72
2023-05-22T11:09:32.734Z,37.40
2023-05-22T11:12:27.408Z,35.75
2023-05-22T11:14:58.278Z,35.90
2023-05-22T11:17:32.907Z,42.67
2023-05-22T11:20:08.236Z,36.88
2023-05-22T11:22:38.013Z,40.50
2023-05-22T11:25:16.761Z,45.20
2023-05-22T11:27:44.861Z,38.55
2023-05-22T11:30:13.224Z,41.63
2023-05-22T11:32:44.967Z,36.33
2023-05-22T11:35:19.652Z,34.55
2023-05-22T11:37:47.596Z,36.50
2023-05-22T11:40:16.990Z,34.92
2023-05-22T11:42:44.566Z,33.17
2023-05-22T11:45:12.051Z,34.85
2023-05-22T11:47:39.294Z,39.42
2023-05-22T11:50:09.867Z,42.70
2023-05-22T11:52:38.213Z,45.97
2023-05-22T11:55:06.359Z,39.05
2023-05-22T11:57:34.434Z,33.63
2023-05-22T12:00:02.100Z,33.92
2023-05-22T12:02:30.116Z,33.42
2023-05-22T12:04:58.379Z,40.72
2023-05-22T12:07:27.622Z,40.67
2023-05-22T12:09:57.770Z,38.45
2023-05-22T12:12:26.127Z,42.10
2023-05-22T12:14:53.411Z,38.78
2023-05-22T12:17:20.545Z,48.40
2023-05-22T12:19:48.394Z,44.13
2023-05-22T12:22:15.694Z,34.53
2023-05-22T12:24:46.353Z,38.33
2023-05-22T12:27:14.992Z,44.28
2023-05-22T12:29:42.911Z,35.80
2023-05-22T12:32:11.763Z,32.53
2023-05-22T12:34:49.911Z,41.10
2023-05-22T12:37:28.382Z,46.65
2023-05-22T12:40:00.239Z,40.42
2023-05-22T12:42:28.451Z,43.25
2023-05-22T12:44:57.002Z,39.72
2023-05-22T12:47:26.594Z,36.05
2023-05-22T12:49:53.628Z,36.83
2023-05-22T12:52:20.883Z,36.17
2023-05-22T12:54:48.621Z,37.45
2023-05-22T12:57:17.057Z,42.60
2023-05-22T12:59:44.223Z,40.13
2023-05-22T13:02:11.437Z,39.95
2023-05-22T13:04:38.850Z,36.70
2023-05-22T13:07:06.184Z,37.72
2023-05-22T13:09:33.057Z,48.88
2023-05-22T13:12:00.258Z,40.28
2023-05-22T13:14:27.348Z,37.85
2023-05-22T13:16:54.485Z,40.33
2023-05-22T13:19:21.582Z,38.75
2023-05-22T13:21:48.558Z,34.78
2023-05-22T13:24:15.500Z,38.40
2023-05-22T13:26:42.516Z,28.83
2023-05-22T13:29:10.023Z,43.83
2023-05-22T13:31:38.982Z,40.70
2023-05-22T13:34:06.062Z,40.08
2023-05-22T13:36:34.122Z,49.75
2023-05-22T13:39:01.064Z,46.03
2023-05-22T13:41:27.992Z,42.75
2023-05-22T13:43:55.042Z,33.15
2023-05-22T13:46:23.427Z,42.85
2023-05-22T13:48:50.740Z,40.53
2023-05-22T13:51:18.002Z,39.10
2023-05-22T13:53:45.174Z,39.78
2023-05-22T13:56:12.022Z,42.63
2023-05-22T13:58:38.957Z,42.92
2023-05-22T14:01:06.766Z,40.38
2023-05-22T14:03:36.078Z,51.13
2023-05-22T14:06:02.951Z,54.78
2023-05-22T14:08:29.921Z,51.75
2023-05-22T14:10:56.842Z,48.28
2023-05-22T14:13:23.932Z,45.78
2023-05-22T14:15:51.155Z,44.85
2023-05-22T14:18:18.284Z,41.80
2023-05-22T14:20:46.162Z,43.20
2023-05-22T14:23:13.785Z,41.95
2023-05-22T14:25:44.506Z,38.08
2023-05-22T14:28:12.676Z,39.35
2023-05-22T14:30:40.302Z,35.42
2023-05-22T14:33:07.881Z,35.75
2023-05-22T14:35:35.174Z,50.00
2023-05-22T14:38:02.311Z,39.28
2023-05-22T14:40:29.372Z,43.83
2023-05-22T14:42:56.341Z,39.75
2023-05-22T14:45:23.895Z,39.22
2023-05-22T14:47:51.171Z,36.92
2023-05-22T14:50:20.322Z,39.55
2023-05-22T14:52:49.284Z,42.35
2023-05-22T14:55:17.123Z,42.42
2023-05-22T14:57:44.247Z,41.67
2023-05-22T15:00:12.412Z,38.60
2023-05-22T15:02:42.054Z,42.35
2023-05-22T15:05:10.077Z,37.97
2023-05-22T15:10:08.863Z,43.30
2023-05-22T15:12:35.891Z,36.10
2023-05-22T15:15:03.003Z,46.15
2023-05-22T15:17:30.201Z,36.25
2023-05-22T15:19:57.261Z,36.92
2023-05-22T15:22:24.161Z,43.05
2023-05-22T15:25:05.536Z,50.47
2023-05-22T15:27:34.705Z,44.65
2023-05-22T15:30:02.590Z,48.42
2023-05-22T15:32:31.494Z,48.20
2023-05-22T15:34:58.523Z,37.85
2023-05-22T15:37:25.508Z,40.63
2023-05-22T15:39:52.829Z,46.42
2023-05-22T15:42:20.876Z,37.47
2023-05-22T15:44:51.084Z,42.80
2023-05-22T15:47:18.115Z,42.85
2023-05-22T15:49:45.021Z,53.03
2023-05-22T15:52:12.018Z,43.42
2023-05-22T15:54:39.246Z,56.20
2023-05-22T15:57:06.516Z,49.50
2023-05-22T15:59:33.733Z,42.05
2023-05-22T16:02:01.550Z,49.30
2023-05-22T16:04:28.551Z,50.13
2023-05-22T16:06:55.614Z,44.88
2023-05-22T16:09:22.631Z,48.35
2023-05-22T16:11:49.618Z,54.35
2023-05-22T16:14:16.592Z,51.22
2023-05-22T16:16:43.892Z,60.78
2023-05-22T16:19:11.715Z,60.53
2023-05-22T16:21:39.152Z,58.65
2023-05-22T16:24:07.140Z,57.85
2023-05-22T16:26:34.384Z,54.53
2023-05-22T16:29:01.242Z,64.82
2023-05-22T16:31:28.866Z,67.45
2023-05-22T16:33:56.203Z,57.53
2023-05-22T16:36:25.113Z,59.85
2023-05-22T16:38:53.254Z,60.25
2023-05-22T16:41:20.195Z,61.78
2023-05-22T16:43:47.199Z,67.25
2023-05-22T16:46:14.172Z,62.28
2023-05-22T16:48:41.512Z,66.07
2023-05-22T16:51:09.258Z,59.72
2023-05-22T16:53:38.180Z,60.40
2023-05-22T16:56:05.888Z,74.28
2023-05-22T16:58:32.786Z,62.70
2023-05-22T17:00:59.915Z,72.85
2023-05-22T17:03:27.748Z,69.22
2023-05-22T17:05:55.112Z,61.50
2023-05-22T17:08:22.012Z,66.80
2023-05-22T17:10:49.072Z,66.53
2023-05-22T17:13:21.010Z,72.93
2023-05-22T17:15:51.835Z,76.03
2023-05-22T17:18:22.357Z,75.45
2023-05-22T17:20:50.242Z,66.57
2023-05-22T17:23:20.966Z,66.95
2023-05-22T17:25:48.742Z,70.22
2023-05-22T17:28:15.782Z,71.25
2023-05-22T17:30:45.269Z,75.18
2023-05-22T17:33:12.860Z,76.32
2023-05-22T17:35:39.851Z,60.58
2023-05-22T17:38:09.502Z,68.45
2023-05-22T17:40:44.696Z,75.78
2023-05-22T17:43:13.135Z,63.70
2023-05-22T17:45:40.797Z,66.95
2023-05-22T17:48:08.435Z,75.03
2023-05-22T17:50:35.444Z,64.28
2023-05-22T17:53:02.458Z,69.43
2023-05-22T17:55:29.385Z,66.97
2023-05-22T17:57:56.513Z,51.58
2023-05-22T18:00:23.633Z,57.97
2023-05-22T18:02:51.289Z,50.13
2023-05-22T18:05:21.570Z,56.47
2023-05-22T18:07:48.692Z,43.28
2023-05-22T18:10:15.735Z,52.53
2023-05-22T18:12:42.654Z,43.20
2023-05-22T18:15:12.374Z,50.63
2023-05-22T18:17:41.192Z,48.50
2023-05-22T18:20:12.014Z,42.05
2023-05-22T18:22:40.140Z,42.90
2023-05-22T18:25:07.696Z,40.42
2023-05-22T18:27:37.058Z,40.47
2023-05-22T18:30:05.337Z,41.80
2023-05-22T18:32:32.501Z,35.55
2023-05-22T18:35:02.510Z,42.55
2023-05-22T18:37:29.678Z,46.80
2023-05-22T18:39:56.578Z,41.20
2023-05-22T18:42:23.803Z,39.22
2023-05-22T18:44:50.966Z,43.38
2023-05-22T18:47:18.168Z,32.20
2023-05-22T18:49:46.795Z,40.83
2023-05-22T18:52:13.938Z,40.88
2023-05-22T18:54:41.023Z,41.80
2023-05-22T18:57:08.072Z,37.85
2023-05-22T18:59:35.038Z,41.03
2023-05-22T19:02:02.478Z,37.78
2023-05-22T19:04:31.655Z,43.03
2023-05-22T19:06:59.110Z,42.47
2023-05-22T19:09:26.135Z,44.55
2023-05-22T19:11:53.029Z,51.83
2023-05-22T19:14:20.117Z,45.88
2023-05-22T19:16:47.028Z,39.70
2023-05-22T19:19:14.897Z,45.33
2023-05-22T19:21:42.113Z,53.50
2023-05-22T19:24:09.358Z,41.88
2023-05-22T19:26:37.279Z,42.97
2023-05-22T19:29:04.318Z,37.97
2023-05-22T19:31:31.326Z,46.75
2023-05-22T19:33:58.352Z,42.83
2023-05-22T19:36:25.644Z,38.13
2023-05-22T19:38:53.585Z,47.78
2023-05-22T19:41:20.896Z,39.25
2023-05-22T19:43:47.944Z,43.95
2023-05-22T19:46:14.887Z,46.00
2023-05-22T19:48:42.049Z,40.63
2023-05-22T19:51:09.176Z,39.75
2023-05-22T19:53:36.580Z,47.72
2023-05-22T19:56:05.953Z,44.53
2023-05-22T19:58:32.992Z,38.90
2023-05-22T20:01:00.321Z,40.70
2023-05-22T20:03:28.148Z,39.72
2023-05-22T20:05:55.755Z,38.83
2023-05-22T20:08:23.364Z,35.42
2023-05-22T20:10:52.851Z,44.28
2023-05-22T20:13:20.108Z,45.05
2023-05-22T20:15:47.894Z,47.58
2023-05-22T20:18:15.818Z,38.47
2023-05-22T20:20:42.891Z,41.05
2023-05-22T20:23:09.946Z,49.90
2023-05-22T20:25:37.870Z,42.42
2023-05-22T20:28:05.388Z,42.75
2023-05-22T20:30:32.654Z,48.28
2023-05-22T20:32:59.575Z,43.33
2023-05-22T20:35:26.958Z,49.05
2023-05-22T20:37:53.901Z,45.85
2023-05-22T20:40:20.922Z,52.67
2023-05-22T20:42:47.928Z,48.60
2023-05-22T20:45:16.073Z,53.97
2023-05-22T20:47:43.408Z,50.08
2023-05-22T20:50:11.253Z,49.90
2023-05-22T20:52:38.294Z,57.08
2023-05-22T20:55:06.015Z,49.42
2023-05-22T20:57:32.895Z,42.75
2023-05-22T20:59:59.792Z,48.85
2023-05-22T21:02:26.870Z,44.05
2023-05-22T21:04:54.321Z,46.75
2023-05-22T21:07:21.377Z,52.25
2023-05-22T21:09:48.632Z,50.15
2023-05-22T21:12:15.805Z,49.55
2023-05-22T21:14:44.158Z,44.88
2023-05-22T21:17:11.227Z,48.95
2023-05-22T21:19:38.233Z,44.50
2023-05-22T21:22:05.569Z,41.67
2023-05-22T21:24:34.470Z,47.13
2023-05-22T21:27:01.689Z,49.55
2023-05-22T21:29:28.760Z,45.63
2023-05-22T21:31:55.837Z,45.78
2023-05-22T21:34:23.025Z,46.35
2023-05-22T21:36:50.618Z,50.63
2023-05-22T21:39:18.365Z,38.55
2023-05-22T21:41:45.682Z,50.25
2023-05-22T21:44:13.188Z,48.92
2023-05-22T21:46:41.213Z,49.95
2023-05-22T21:49:09.616Z,41.10
2023-05-22T21:51:37.030Z,48.58
2023-05-22T21:54:04.514Z,63.03
2023-05-22T21:56:31.563Z,51.40
2023-05-22T21:58:58.401Z,48.55
2023-05-22T22:01:25.668Z,51.92
2023-05-22T22:03:54.645Z,54.58
2023-05-22T22:06:21.723Z,48.63
2023-05-22T22:08:49.498Z,56.80
2023-05-22T22:11:16.352Z,53.47
2023-05-22T22:13:43.354Z,48.88
2023-05-22T22:16:10.529Z,48.10
2023-05-22T22:18:37.523Z,56.72
2023-05-22T22:21:04.801Z,46.92
2023-05-22T22:23:32.745Z,45.53
2023-05-22T22:25:59.914Z,50.63
2023-05-22T22:28:27.031Z,51.30
2023-05-22T22:30:55.272Z,47.97
2023-05-22T22:33:23.007Z,54.60
2023-05-22T22:35:50.007Z,42.45
2023-05-22T22:38:17.133Z,47.47
2023-05-22T22:40:44.181Z,40.72
2023-05-22T22:43:11.067Z,43.95
2023-05-22T22:45:40.649Z,44.60
2023-05-22T22:48:08.029Z,43.70
2023-05-22T22:50:34.928Z,43.65
2023-05-22T22:53:01.954Z,43.60
2023-05-22T22:55:29.183Z,44.17
2023-05-22T22:57:56.647Z,35.92
2023-05-22T23:00:24.013Z,42.25
2023-05-22T23:02:52.735Z,48.72
2023-05-22T23:05:20.633Z,52.53
2023-05-22T23:07:49.228Z,43.28
2023-05-22T23:10:16.303Z,46.95
2023-05-22T23:12:43.354Z,42.17
2023-05-22T23:15:13.132Z,47.05
2023-05-22T23:17:42.063Z,49.65
2023-05-22T23:20:09.857Z,46.80
2023-05-22T23:22:36.900Z,56.30
2023-05-22T23:25:04.081Z,52.53
2023-05-22T23:27:31.733Z,48.08
2023-05-22T23:29:58.688Z,52.13
2023-05-22T23:32:25.759Z,53.10
2023-05-22T23:34:52.875Z,52.20
2023-05-22T23:37:19.971Z,54.88
2023-05-22T23:39:46.903Z,50.75
2023-05-22T23:42:16.107Z,50.88
2023-05-22T23:44:43.148Z,50.38
2023-05-22T23:47:10.386Z,50.28
2023-05-22T23:49:37.490Z,54.08
2023-05-22T23:52:04.639Z,48.83
2023-05-22T23:54:31.562Z,53.90
2023-05-22T23:56:58.600Z,54.65
2023-05-22T23:59:25.610Z,52.45
